sensor_id;sensor_type;location;lat;lon;timestamp;P1;durP1;ratioP1;P2;durP2;ratioP2
10094;SDS011;5086;50.830;7.102;2023-05-09T00:00:29;19.00;;;9.90;;
10094;SDS011;5086;50.830;7.102;2023-05-09T00:02:58;22.17;;;11.35;;
10094;SDS011;5086;50.830;7.102;2023-05-09T00:05:26;18.50;;;10.00;;
10094;SDS011;5086;50.830;7.102;2023-05-09T00:07:53;20.88;;;10.95;;
10094;SDS011;5086;50.830;7.102;2023-05-09T00:10:20;20.48;;;10.45;;
10094;SDS011;5086;50.830;7.102;2023-05-09T00:12:47;18.92;;;9.73;;
10094;SDS011;5086;50.830;7.102;2023-05-09T00:15:14;21.23;;;10.80;;
10094;SDS011;5086;50.830;7.102;2023-05-09T00:17:41;21.27;;;10.82;;
10094;SDS011;5086;50.830;7.102;2023-05-09T00:20:11;19.88;;;10.98;;
10094;SDS011;5086;50.830;7.102;2023-05-09T00:22:38;21.70;;;10.70;;
10094;SDS011;5086;50.830;7.102;2023-05-09T00:25:06;25.58;;;9.82;;
10094;SDS011;5086;50.830;7.102;2023-05-09T00:27:36;24.30;;;11.38;;
10094;SDS011;5086;50.830;7.102;2023-05-09T00:30:03;20.48;;;10.20;;
10094;SDS011;5086;50.830;7.102;2023-05-09T00:32:31;17.73;;;9.75;;
10094;SDS011;5086;50.830;7.102;2023-05-09T00:34:58;23.13;;;10.85;;
10094;SDS011;5086;50.830;7.102;2023-05-09T00:37:27;28.23;;;11.85;;
10094;SDS011;5086;50.830;7.102;2023-05-09T00:39:54;23.67;;;10.90;;
10094;SDS011;5086;50.830;7.102;2023-05-09T00:42:21;20.88;;;9.45;;
10094;SDS011;5086;50.830;7.102;2023-05-09T00:44:51;23.58;;;11.30;;
10094;SDS011;5086;50.830;7.102;2023-05-09T00:47:19;21.88;;;11.70;;
10094;SDS011;5086;50.830;7.102;2023-05-09T00:49:48;20.60;;;10.90;;
10094;SDS011;5086;50.830;7.102;2023-05-09T00:52:15;19.63;;;10.20;;
10094;SDS011;5086;50.830;7.102;2023-05-09T00:54:46;20.77;;;10.65;;
10094;SDS011;5086;50.830;7.102;2023-05-09T00:57:14;19.40;;;10.68;;
10094;SDS011;5086;50.830;7.102;2023-05-09T00:59:41;22.23;;;10.43;;
10094;SDS011;5086;50.830;7.102;2023-05-09T01:02:08;19.55;;;10.82;;
10094;SDS011;5086;50.830;7.102;2023-05-09T01:04:35;22.25;;;10.93;;
10094;SDS011;5086;50.830;7.102;2023-05-09T01:07:03;24.20;;;10.80;;
10094;SDS011;5086;50.830;7.102;2023-05-09T01:09:36;23.02;;;11.15;;
10094;SDS011;5086;50.830;7.102;2023-05-09T01:12:12;28.13;;;11.15;;
10094;SDS011;5086;50.830;7.102;2023-05-09T01:14:45;20.42;;;10.90;;
10094;SDS011;5086;50.830;7.102;2023-05-09T01:17:19;20.65;;;10.65;;
10094;SDS011;5086;50.830;7.102;2023-05-09T01:19:59;27.50;;;11.15;;
10094;SDS011;5086;50.830;7.102;2023-05-09T01:22:35;21.98;;;10.80;;
10094;SDS011;5086;50.830;7.102;2023-05-09T01:25:06;22.20;;;11.07;;
10094;SDS011;5086;50.830;7.102;2023-05-09T01:27:50;23.38;;;11.82;;
10094;SDS011;5086;50.830;7.102;2023-05-09T01:30:25;23.55;;;11.35;;
10094;SDS011;5086;50.830;7.102;2023-05-09T01:32:58;21.77;;;10.77;;
10094;SDS011;5086;50.830;7.102;2023-05-09T01:35:27;26.25;;;12.90;;
10094;SDS011;5086;50.830;7.102;2023-05-09T01:37:58;24.85;;;11.77;;
10094;SDS011;5086;50.830;7.102;2023-05-09T01:40:25;24.50;;;11.07;;
10094;SDS011;5086;50.830;7.102;2023-05-09T01:42:58;21.27;;;10.65;;
10094;SDS011;5086;50.830;7.102;2023-05-09T01:45:30;25.30;;;11.50;;
10094;SDS011;5086;50.830;7.102;2023-05-09T01:47:58;28.35;;;12.27;;
10094;SDS011;5086;50.830;7.102;2023-05-09T01:50:27;22.38;;;9.93;;
10094;SDS011;5086;50.830;7.102;2023-05-09T01:52:55;24.38;;;11.35;;
10094;SDS011;5086;50.830;7.102;2023-05-09T01:55:24;20.60;;;11.07;;
10094;SDS011;5086;50.830;7.102;2023-05-09T01:57:53;23.17;;;12.15;;
10094;SDS011;5086;50.830;7.102;2023-05-09T02:00:21;23.98;;;10.85;;
10094;SDS011;5086;50.830;7.102;2023-05-09T02:02:51;21.85;;;11.23;;
10094;SDS011;5086;50.830;7.102;2023-05-09T02:05:20;22.95;;;10.75;;
10094;SDS011;5086;50.830;7.102;2023-05-09T02:07:51;28.10;;;12.32;;
10094;SDS011;5086;50.830;7.102;2023-05-09T02:10:21;26.60;;;11.30;;
10094;SDS011;5086;50.830;7.102;2023-05-09T02:12:49;25.45;;;12.18;;
10094;SDS011;5086;50.830;7.102;2023-05-09T02:15:16;27.63;;;12.35;;
10094;SDS011;5086;50.830;7.102;2023-05-09T02:17:43;23.25;;;11.73;;
10094;SDS011;5086;50.830;7.102;2023-05-09T02:20:19;19.70;;;10.55;;
10094;SDS011;5086;50.830;7.102;2023-05-09T02:22:47;21.85;;;11.05;;
10094;SDS011;5086;50.830;7.102;2023-05-09T02:25:14;23.95;;;11.68;;
10094;SDS011;5086;50.830;7.102;2023-05-09T02:27:43;30.00;;;12.93;;
10094;SDS011;5086;50.830;7.102;2023-05-09T02:30:11;23.50;;;11.30;;
10094;SDS011;5086;50.830;7.102;2023-05-09T02:32:42;24.50;;;12.38;;
10094;SDS011;5086;50.830;7.102;2023-05-09T02:35:14;24.30;;;12.23;;
10094;SDS011;5086;50.830;7.102;2023-05-09T02:37:45;26.60;;;11.85;;
10094;SDS011;5086;50.830;7.102;2023-05-09T02:40:13;28.55;;;11.40;;
10094;SDS011;5086;50.830;7.102;2023-05-09T02:42:41;24.17;;;11.10;;
10094;SDS011;5086;50.830;7.102;2023-05-09T02:45:08;23.63;;;10.75;;
10094;SDS011;5086;50.830;7.102;2023-05-09T02:47:35;21.73;;;11.63;;
10094;SDS011;5086;50.830;7.102;2023-05-09T02:50:02;25.98;;;12.32;;
10094;SDS011;5086;50.830;7.102;2023-05-09T02:52:31;23.77;;;12.60;;
10094;SDS011;5086;50.830;7.102;2023-05-09T02:54:58;27.88;;;13.13;;
10094;SDS011;5086;50.830;7.102;2023-05-09T02:57:25;25.80;;;11.10;;
10094;SDS011;5086;50.830;7.102;2023-05-09T02:59:51;23.83;;;10.57;;
10094;SDS011;5086;50.830;7.102;2023-05-09T03:02:18;27.58;;;12.07;;
10094;SDS011;5086;50.830;7.102;2023-05-09T03:04:45;19.45;;;10.88;;
10094;SDS011;5086;50.830;7.102;2023-05-09T03:07:12;20.50;;;10.90;;
10094;SDS011;5086;50.830;7.102;2023-05-09T03:09:40;24.95;;;10.73;;
10094;SDS011;5086;50.830;7.102;2023-05-09T03:12:07;24.05;;;11.60;;
10094;SDS011;5086;50.830;7.102;2023-05-09T03:14:34;23.23;;;10.40;;
10094;SDS011;5086;50.830;7.102;2023-05-09T03:17:00;22.83;;;11.45;;
10094;SDS011;5086;50.830;7.102;2023-05-09T03:19:27;21.63;;;10.63;;
10094;SDS011;5086;50.830;7.102;2023-05-09T03:21:54;28.77;;;12.50;;
10094;SDS011;5086;50.830;7.102;2023-05-09T03:24:21;24.95;;;11.50;;
10094;SDS011;5086;50.830;7.102;2023-05-09T03:26:49;25.10;;;11.65;;
10094;SDS011;5086;50.830;7.102;2023-05-09T03:29:16;23.63;;;11.63;;
10094;SDS011;5086;50.830;7.102;2023-05-09T03:31:43;29.25;;;11.65;;
10094;SDS011;5086;50.830;7.102;2023-05-09T03:34:10;22.15;;;11.23;;
10094;SDS011;5086;50.830;7.102;2023-05-09T03:36:39;26.63;;;11.23;;
10094;SDS011;5086;50.830;7.102;2023-05-09T03:39:06;21.58;;;10.27;;
10094;SDS011;5086;50.830;7.102;2023-05-09T03:41:34;24.73;;;10.32;;
10094;SDS011;5086;50.830;7.102;2023-05-09T03:44:02;24.90;;;11.48;;
10094;SDS011;5086;50.830;7.102;2023-05-09T03:46:29;23.92;;;10.85;;
10094;SDS011;5086;50.830;7.102;2023-05-09T03:48:56;22.60;;;11.02;;
10094;SDS011;5086;50.830;7.102;2023-05-09T03:51:23;21.80;;;11.00;;
10094;SDS011;5086;50.830;7.102;2023-05-09T03:53:50;26.52;;;12.25;;
10094;SDS011;5086;50.830;7.102;2023-05-09T03:56:17;30.17;;;12.23;;
10094;SDS011;5086;50.830;7.102;2023-05-09T03:58:44;25.05;;;10.85;;
10094;SDS011;5086;50.830;7.102;2023-05-09T04:01:13;20.75;;;11.02;;
10094;SDS011;5086;50.830;7.102;2023-05-09T04:03:40;21.63;;;10.50;;
10094;SDS011;5086;50.830;7.102;2023-05-09T04:06:10;29.33;;;11.73;;
10094;SDS011;5086;50.830;7.102;2023-05-09T04:08:37;23.48;;;10.20;;
10094;SDS011;5086;50.830;7.102;2023-05-09T04:11:04;29.38;;;12.93;;
10094;SDS011;5086;50.830;7.102;2023-05-09T04:13:32;18.50;;;10.68;;
10094;SDS011;5086;50.830;7.102;2023-05-09T04:15:59;26.92;;;11.23;;
10094;SDS011;5086;50.830;7.102;2023-05-09T04:18:28;22.77;;;11.60;;
10094;SDS011;5086;50.830;7.102;2023-05-09T04:20:55;22.05;;;10.63;;
10094;SDS011;5086;50.830;7.102;2023-05-09T04:23:22;30.35;;;12.00;;
10094;SDS011;5086;50.830;7.102;2023-05-09T04:25:49;24.48;;;11.45;;
10094;SDS011;5086;50.830;7.102;2023-05-09T04:28:17;23.65;;;10.60;;
10094;SDS011;5086;50.830;7.102;2023-05-09T04:30:46;20.25;;;10.23;;
10094;SDS011;5086;50.830;7.102;2023-05-09T04:33:13;24.27;;;10.80;;
10094;SDS011;5086;50.830;7.102;2023-05-09T04:35:44;23.75;;;12.15;;
10094;SDS011;5086;50.830;7.102;2023-05-09T04:38:11;22.20;;;11.45;;
10094;SDS011;5086;50.830;7.102;2023-05-09T04:40:38;22.77;;;10.50;;
10094;SDS011;5086;50.830;7.102;2023-05-09T04:43:04;22.15;;;11.18;;
10094;SDS011;5086;50.830;7.102;2023-05-09T04:45:31;24.65;;;12.13;;
10094;SDS011;5086;50.830;7.102;2023-05-09T04:47:58;24.73;;;11.18;;
10094;SDS011;5086;50.830;7.102;2023-05-09T04:50:25;25.42;;;11.90;;
10094;SDS011;5086;50.830;7.102;2023-05-09T04:52:53;23.48;;;11.50;;
10094;SDS011;5086;50.830;7.102;2023-05-09T04:55:20;28.35;;;12.80;;
10094;SDS011;5086;50.830;7.102;2023-05-09T04:57:46;26.27;;;11.05;;
10094;SDS011;5086;50.830;7.102;2023-05-09T05:00:13;23.40;;;11.25;;
10094;SDS011;5086;50.830;7.102;2023-05-09T05:02:42;25.77;;;11.05;;
10094;SDS011;5086;50.830;7.102;2023-05-09T05:05:09;23.80;;;11.48;;
10094;SDS011;5086;50.830;7.102;2023-05-09T05:07:36;22.58;;;11.10;;
10094;SDS011;5086;50.830;7.102;2023-05-09T05:10:04;22.77;;;11.40;;
10094;SDS011;5086;50.830;7.102;2023-05-09T05:12:32;27.02;;;12.25;;
10094;SDS011;5086;50.830;7.102;2023-05-09T05:14:58;26.63;;;11.93;;
10094;SDS011;5086;50.830;7.102;2023-05-09T05:17:25;26.63;;;12.73;;
10094;SDS011;5086;50.830;7.102;2023-05-09T05:19:54;23.33;;;10.98;;
10094;SDS011;5086;50.830;7.102;2023-05-09T05:22:21;26.00;;;11.52;;
10094;SDS011;5086;50.830;7.102;2023-05-09T05:24:48;25.15;;;11.68;;
10094;SDS011;5086;50.830;7.102;2023-05-09T05:27:16;26.48;;;12.50;;
10094;SDS011;5086;50.830;7.102;2023-05-09T05:29:43;21.13;;;10.93;;
10094;SDS011;5086;50.830;7.102;2023-05-09T05:32:10;26.02;;;12.57;;
10094;SDS011;5086;50.830;7.102;2023-05-09T05:34:37;23.63;;;11.65;;
10094;SDS011;5086;50.830;7.102;2023-05-09T05:37:04;25.42;;;11.45;;
10094;SDS011;5086;50.830;7.102;2023-05-09T05:39:31;24.60;;;12.15;;
10094;SDS011;5086;50.830;7.102;2023-05-09T05:41:57;24.08;;;12.15;;
10094;SDS011;5086;50.830;7.102;2023-05-09T05:44:26;26.08;;;11.93;;
10094;SDS011;5086;50.830;7.102;2023-05-09T05:46:53;24.63;;;12.00;;
10094;SDS011;5086;50.830;7.102;2023-05-09T05:49:19;25.20;;;13.52;;
10094;SDS011;5086;50.830;7.102;2023-05-09T05:51:46;24.38;;;11.93;;
10094;SDS011;5086;50.830;7.102;2023-05-09T05:54:13;29.08;;;12.45;;
10094;SDS011;5086;50.830;7.102;2023-05-09T05:56:40;27.50;;;10.95;;
10094;SDS011;5086;50.830;7.102;2023-05-09T05:59:07;24.73;;;11.73;;
10094;SDS011;5086;50.830;7.102;2023-05-09T06:01:35;26.50;;;10.82;;
10094;SDS011;5086;50.830;7.102;2023-05-09T06:04:02;31.02;;;12.52;;
10094;SDS011;5086;50.830;7.102;2023-05-09T06:06:29;26.40;;;11.55;;
10094;SDS011;5086;50.830;7.102;2023-05-09T06:08:58;25.05;;;11.50;;
10094;SDS011;5086;50.830;7.102;2023-05-09T06:11:25;31.42;;;11.95;;
10094;SDS011;5086;50.830;7.102;2023-05-09T06:13:52;24.90;;;11.95;;
10094;SDS011;5086;50.830;7.102;2023-05-09T06:16:19;21.25;;;11.27;;
10094;SDS011;5086;50.830;7.102;2023-05-09T06:18:47;21.70;;;10.65;;
10094;SDS011;5086;50.830;7.102;2023-05-09T06:21:14;19.95;;;11.00;;
10094;SDS011;5086;50.830;7.102;2023-05-09T06:23:41;25.20;;;10.63;;
10094;SDS011;5086;50.830;7.102;2023-05-09T06:26:07;25.17;;;11.50;;
10094;SDS011;5086;50.830;7.102;2023-05-09T06:28:34;22.90;;;12.20;;
10094;SDS011;5086;50.830;7.102;2023-05-09T06:31:01;24.92;;;10.45;;
10094;SDS011;5086;50.830;7.102;2023-05-09T06:33:28;23.05;;;10.45;;
10094;SDS011;5086;50.830;7.102;2023-05-09T06:35:56;21.73;;;11.55;;
10094;SDS011;5086;50.830;7.102;2023-05-09T06:38:24;21.77;;;11.48;;
10094;SDS011;5086;50.830;7.102;2023-05-09T06:40:51;19.55;;;11.10;;
10094;SDS011;5086;50.830;7.102;2023-05-09T06:43:19;24.80;;;11.02;;
10094;SDS011;5086;50.830;7.102;2023-05-09T06:45:45;24.00;;;10.98;;
10094;SDS011;5086;50.830;7.102;2023-05-09T06:48:12;20.23;;;10.23;;
10094;SDS011;5086;50.830;7.102;2023-05-09T06:50:39;19.02;;;10.00;;
10094;SDS011;5086;50.830;7.102;2023-05-09T06:53:08;25.50;;;11.63;;
10094;SDS011;5086;50.830;7.102;2023-05-09T06:55:35;29.10;;;9.70;;
10094;SDS011;5086;50.830;7.102;2023-05-09T06:58:03;15.80;;;9.03;;
10094;SDS011;5086;50.830;7.102;2023-05-09T07:00:32;17.87;;;9.70;;
10094;SDS011;5086;50.830;7.102;2023-05-09T07:02:59;19.17;;;9.37;;
10094;SDS011;5086;50.830;7.102;2023-05-09T07:05:26;17.40;;;9.43;;
10094;SDS011;5086;50.830;7.102;2023-05-09T07:07:53;15.17;;;8.47;;
10094;SDS011;5086;50.830;7.102;2023-05-09T07:10:22;19.63;;;9.43;;
10094;SDS011;5086;50.830;7.102;2023-05-09T07:12:50;13.33;;;8.53;;
10094;SDS011;5086;50.830;7.102;2023-05-09T07:15:17;14.60;;;8.93;;
10094;SDS011;5086;50.830;7.102;2023-05-09T07:17:45;18.27;;;9.13;;
10094;SDS011;5086;50.830;7.102;2023-05-09T07:20:12;14.67;;;8.73;;
10094;SDS011;5086;50.830;7.102;2023-05-09T07:22:38;16.97;;;8.37;;
10094;SDS011;5086;50.830;7.102;2023-05-09T07:25:06;13.40;;;7.53;;
10094;SDS011;5086;50.830;7.102;2023-05-09T07:27:35;13.80;;;8.10;;
10094;SDS011;5086;50.830;7.102;2023-05-09T07:30:02;11.17;;;7.70;;
10094;SDS011;5086;50.830;7.102;2023-05-09T07:32:29;11.63;;;7.47;;
10094;SDS011;5086;50.830;7.102;2023-05-09T07:34:57;13.83;;;7.47;;
10094;SDS011;5086;50.830;7.102;2023-05-09T07:37:24;11.13;;;6.97;;
10094;SDS011;5086;50.830;7.102;2023-05-09T07:39:51;12.47;;;7.03;;
10094;SDS011;5086;50.830;7.102;2023-05-09T07:42:18;9.67;;;6.63;;
10094;SDS011;5086;50.830;7.102;2023-05-09T07:44:48;10.40;;;6.33;;
10094;SDS011;5086;50.830;7.102;2023-05-09T07:47:17;15.37;;;6.70;;
10094;SDS011;5086;50.830;7.102;2023-05-09T07:49:44;9.97;;;5.80;;
10094;SDS011;5086;50.830;7.102;2023-05-09T07:52:12;11.83;;;7.20;;
10094;SDS011;5086;50.830;7.102;2023-05-09T07:54:42;10.90;;;6.63;;
10094;SDS011;5086;50.830;7.102;2023-05-09T07:57:09;9.60;;;5.73;;
10094;SDS011;5086;50.830;7.102;2023-05-09T07:59:36;10.93;;;6.20;;
10094;SDS011;5086;50.830;7.102;2023-05-09T08:02:04;7.10;;;5.30;;
10094;SDS011;5086;50.830;7.102;2023-05-09T08:04:31;9.97;;;5.50;;
10094;SDS011;5086;50.830;7.102;2023-05-09T08:07:01;8.00;;;5.60;;
10094;SDS011;5086;50.830;7.102;2023-05-09T08:09:33;7.60;;;5.10;;
10094;SDS011;5086;50.830;7.102;2023-05-09T08:11:59;8.03;;;5.40;;
10094;SDS011;5086;50.830;7.102;2023-05-09T08:14:26;10.27;;;5.77;;
10094;SDS011;5086;50.830;7.102;2023-05-09T08:16:53;7.87;;;5.03;;
10094;SDS011;5086;50.830;7.102;2023-05-09T08:19:21;7.27;;;5.23;;
10094;SDS011;5086;50.830;7.102;2023-05-09T08:21:50;6.27;;;4.73;;
10094;SDS011;5086;50.830;7.102;2023-05-09T08:24:16;9.80;;;4.80;;
10094;SDS011;5086;50.830;7.102;2023-05-09T08:26:44;5.43;;;3.63;;
10094;SDS011;5086;50.830;7.102;2023-05-09T08:29:12;5.93;;;3.53;;
10094;SDS011;5086;50.830;7.102;2023-05-09T08:31:42;9.80;;;4.67;;
10094;SDS011;5086;50.830;7.102;2023-05-09T08:34:09;5.27;;;4.10;;
10094;SDS011;5086;50.830;7.102;2023-05-09T08:36:37;7.60;;;4.00;;
10094;SDS011;5086;50.830;7.102;2023-05-09T08:39:05;5.13;;;4.00;;
10094;SDS011;5086;50.830;7.102;2023-05-09T08:41:33;7.03;;;4.07;;
10094;SDS011;5086;50.830;7.102;2023-05-09T08:44:01;6.87;;;4.27;;
10094;SDS011;5086;50.830;7.102;2023-05-09T08:46:30;7.53;;;4.87;;
10094;SDS011;5086;50.830;7.102;2023-05-09T08:49:02;8.57;;;5.03;;
10094;SDS011;5086;50.830;7.102;2023-05-09T08:51:30;8.40;;;5.20;;
10094;SDS011;5086;50.830;7.102;2023-05-09T08:54:21;6.73;;;4.70;;
10094;SDS011;5086;50.830;7.102;2023-05-09T08:57:12;8.97;;;5.47;;
10094;SDS011;5086;50.830;7.102;2023-05-09T08:59:39;9.23;;;5.43;;
10094;SDS011;5086;50.830;7.102;2023-05-09T09:02:08;8.13;;;4.07;;
10094;SDS011;5086;50.830;7.102;2023-05-09T09:04:41;9.13;;;4.77;;
10094;SDS011;5086;50.830;7.102;2023-05-09T09:11:04;7.30;;;4.97;;
10094;SDS011;5086;50.830;7.102;2023-05-09T09:13:42;6.73;;;4.70;;
10094;SDS011;5086;50.830;7.102;2023-05-09T09:16:23;9.03;;;4.37;;
10094;SDS011;5086;50.830;7.102;2023-05-09T09:19:00;11.00;;;4.53;;
10094;SDS011;5086;50.830;7.102;2023-05-09T09:21:32;7.10;;;4.57;;
10094;SDS011;5086;50.830;7.102;2023-05-09T09:24:06;7.57;;;4.53;;
10094;SDS011;5086;50.830;7.102;2023-05-09T09:26:34;6.40;;;4.17;;
10094;SDS011;5086;50.830;7.102;2023-05-09T09:29:11;6.27;;;4.70;;
10094;SDS011;5086;50.830;7.102;2023-05-09T09:31:39;7.23;;;4.20;;
10094;SDS011;5086;50.830;7.102;2023-05-09T09:34:09;6.70;;;4.50;;
10094;SDS011;5086;50.830;7.102;2023-05-09T09:36:38;6.40;;;4.20;;
10094;SDS011;5086;50.830;7.102;2023-05-09T09:39:05;6.00;;;4.10;;
10094;SDS011;5086;50.830;7.102;2023-05-09T09:41:37;7.27;;;3.83;;
10094;SDS011;5086;50.830;7.102;2023-05-09T09:44:15;4.83;;;3.53;;
10094;SDS011;5086;50.830;7.102;2023-05-09T09:46:43;4.90;;;3.80;;
10094;SDS011;5086;50.830;7.102;2023-05-09T09:49:11;4.93;;;3.73;;
10094;SDS011;5086;50.830;7.102;2023-05-09T09:51:39;8.07;;;3.80;;
10094;SDS011;5086;50.830;7.102;2023-05-09T09:54:07;5.47;;;3.77;;
10094;SDS011;5086;50.830;7.102;2023-05-09T09:56:40;5.27;;;3.53;;
10094;SDS011;5086;50.830;7.102;2023-05-09T09:59:09;11.57;;;3.70;;
10094;SDS011;5086;50.830;7.102;2023-05-09T10:01:56;4.70;;;3.27;;
10094;SDS011;5086;50.830;7.102;2023-05-09T10:04:26;5.20;;;3.87;;
10094;SDS011;5086;50.830;7.102;2023-05-09T10:06:55;4.17;;;3.20;;
10094;SDS011;5086;50.830;7.102;2023-05-09T10:09:22;4.03;;;3.27;;
10094;SDS011;5086;50.830;7.102;2023-05-09T10:11:52;4.07;;;2.73;;
10094;SDS011;5086;50.830;7.102;2023-05-09T10:14:20;3.60;;;2.47;;
10094;SDS011;5086;50.830;7.102;2023-05-09T10:16:49;6.93;;;2.83;;
10094;SDS011;5086;50.830;7.102;2023-05-09T10:19:17;3.10;;;2.73;;
10094;SDS011;5086;50.830;7.102;2023-05-09T10:21:48;4.07;;;3.10;;
10094;SDS011;5086;50.830;7.102;2023-05-09T10:24:17;2.90;;;2.67;;
10094;SDS011;5086;50.830;7.102;2023-05-09T10:26:49;6.00;;;2.80;;
10094;SDS011;5086;50.830;7.102;2023-05-09T10:29:24;2.83;;;2.60;;
10094;SDS011;5086;50.830;7.102;2023-05-09T10:31:57;3.10;;;2.80;;
10094;SDS011;5086;50.830;7.102;2023-05-09T10:34:26;5.80;;;3.13;;
10094;SDS011;5086;50.830;7.102;2023-05-09T10:36:57;4.80;;;3.23;;
10094;SDS011;5086;50.830;7.102;2023-05-09T10:39:25;6.80;;;3.07;;
10094;SDS011;5086;50.830;7.102;2023-05-09T10:41:54;3.60;;;2.63;;
10094;SDS011;5086;50.830;7.102;2023-05-09T10:44:23;7.87;;;3.17;;
10094;SDS011;5086;50.830;7.102;2023-05-09T10:46:51;3.30;;;2.80;;
10094;SDS011;5086;50.830;7.102;2023-05-09T10:49:19;3.90;;;2.90;;
10094;SDS011;5086;50.830;7.102;2023-05-09T10:51:51;4.73;;;2.97;;
10094;SDS011;5086;50.830;7.102;2023-05-09T10:54:29;4.93;;;3.17;;
10094;SDS011;5086;50.830;7.102;2023-05-09T10:57:09;7.90;;;3.10;;
10094;SDS011;5086;50.830;7.102;2023-05-09T10:59:45;5.00;;;3.00;;
10094;SDS011;5086;50.830;7.102;2023-05-09T11:02:18;6.73;;;3.40;;
10094;SDS011;5086;50.830;7.102;2023-05-09T11:04:45;3.97;;;2.60;;
10094;SDS011;5086;50.830;7.102;2023-05-09T11:07:22;11.67;;;2.93;;
10094;SDS011;5086;50.830;7.102;2023-05-09T11:09:51;4.73;;;2.80;;
10094;SDS011;5086;50.830;7.102;2023-05-09T11:12:20;8.10;;;2.60;;
10094;SDS011;5086;50.830;7.102;2023-05-09T11:14:51;5.03;;;2.90;;
10094;SDS011;5086;50.830;7.102;2023-05-09T11:17:26;3.23;;;2.93;;
10094;SDS011;5086;50.830;7.102;2023-05-09T11:19:56;3.07;;;2.60;;
10094;SDS011;5086;50.830;7.102;2023-05-09T11:22:29;4.37;;;2.90;;
10094;SDS011;5086;50.830;7.102;2023-05-09T11:25:06;3.90;;;2.70;;
10094;SDS011;5086;50.830;7.102;2023-05-09T11:27:40;4.40;;;2.90;;
10094;SDS011;5086;50.830;7.102;2023-05-09T11:30:17;4.23;;;3.00;;
10094;SDS011;5086;50.830;7.102;2023-05-09T11:32:50;4.67;;;3.37;;
10094;SDS011;5086;50.830;7.102;2023-05-09T11:35:19;3.10;;;2.80;;
10094;SDS011;5086;50.830;7.102;2023-05-09T11:37:58;2.97;;;2.67;;
10094;SDS011;5086;50.830;7.102;2023-05-09T11:40:28;4.20;;;3.00;;
10094;SDS011;5086;50.830;7.102;2023-05-09T11:43:01;2.57;;;2.37;;
10094;SDS011;5086;50.830;7.102;2023-05-09T11:45:31;3.47;;;2.60;;
10094;SDS011;5086;50.830;7.102;2023-05-09T11:47:58;4.57;;;2.83;;
10094;SDS011;5086;50.830;7.102;2023-05-09T11:50:28;4.63;;;2.73;;
10094;SDS011;5086;50.830;7.102;2023-05-09T11:52:54;3.83;;;2.73;;
10094;SDS011;5086;50.830;7.102;2023-05-09T11:55:22;3.77;;;2.67;;
10094;SDS011;5086;50.830;7.102;2023-05-09T11:57:53;4.90;;;2.77;;
10094;SDS011;5086;50.830;7.102;2023-05-09T12:00:23;3.50;;;3.20;;
10094;SDS011;5086;50.830;7.102;2023-05-09T12:02:50;5.93;;;2.70;;
10094;SDS011;5086;50.830;7.102;2023-05-09T12:05:21;3.90;;;2.57;;
10094;SDS011;5086;50.830;7.102;2023-05-09T12:07:48;6.60;;;2.40;;
10094;SDS011;5086;50.830;7.102;2023-05-09T12:10:18;6.10;;;2.60;;
10094;SDS011;5086;50.830;7.102;2023-05-09T12:12:46;3.30;;;2.70;;
10094;SDS011;5086;50.830;7.102;2023-05-09T12:15:14;3.17;;;2.53;;
10094;SDS011;5086;50.830;7.102;2023-05-09T12:17:43;3.00;;;2.47;;
10094;SDS011;5086;50.830;7.102;2023-05-09T12:20:11;2.50;;;2.30;;
10094;SDS011;5086;50.830;7.102;2023-05-09T12:22:41;2.77;;;2.50;;
10094;SDS011;5086;50.830;7.102;2023-05-09T12:25:10;3.40;;;2.90;;
10094;SDS011;5086;50.830;7.102;2023-05-09T12:27:38;3.53;;;2.60;;
10094;SDS011;5086;50.830;7.102;2023-05-09T12:30:08;2.73;;;1.93;;
10094;SDS011;5086;50.830;7.102;2023-05-09T12:32:38;4.03;;;2.30;;
10094;SDS011;5086;50.830;7.102;2023-05-09T12:35:09;3.67;;;2.70;;
10094;SDS011;5086;50.830;7.102;2023-05-09T12:37:35;3.73;;;2.83;;
10094;SDS011;5086;50.830;7.102;2023-05-09T12:40:03;2.70;;;2.40;;
10094;SDS011;5086;50.830;7.102;2023-05-09T12:42:31;4.80;;;2.60;;
10094;SDS011;5086;50.830;7.102;2023-05-09T12:45:00;2.30;;;2.13;;
10094;SDS011;5086;50.830;7.102;2023-05-09T12:47:31;3.37;;;2.40;;
10094;SDS011;5086;50.830;7.102;2023-05-09T12:49:59;3.57;;;2.67;;
10094;SDS011;5086;50.830;7.102;2023-05-09T12:52:34;3.13;;;2.40;;
10094;SDS011;5086;50.830;7.102;2023-05-09T12:55:12;3.47;;;2.13;;
10094;SDS011;5086;50.830;7.102;2023-05-09T12:57:39;2.40;;;2.20;;
10094;SDS011;5086;50.830;7.102;2023-05-09T13:00:07;3.30;;;2.07;;
10094;SDS011;5086;50.830;7.102;2023-05-09T13:02:51;4.93;;;2.20;;
10094;SDS011;5086;50.830;7.102;2023-05-09T13:05:19;5.10;;;2.43;;
10094;SDS011;5086;50.830;7.102;2023-05-09T13:07:55;3.60;;;2.30;;
10094;SDS011;5086;50.830;7.102;2023-05-09T13:10:36;3.83;;;1.90;;
10094;SDS011;5086;50.830;7.102;2023-05-09T13:13:03;3.73;;;1.80;;
10094;SDS011;5086;50.830;7.102;2023-05-09T13:15:30;2.50;;;1.90;;
10094;SDS011;5086;50.830;7.102;2023-05-09T13:17:57;2.37;;;1.93;;
10094;SDS011;5086;50.830;7.102;2023-05-09T13:20:24;2.50;;;2.27;;
10094;SDS011;5086;50.830;7.102;2023-05-09T13:22:52;4.80;;;2.43;;
10094;SDS011;5086;50.830;7.102;2023-05-09T13:25:19;4.53;;;2.93;;
10094;SDS011;5086;50.830;7.102;2023-05-09T13:27:49;4.87;;;2.93;;
10094;SDS011;5086;50.830;7.102;2023-05-09T13:30:17;3.70;;;2.40;;
10094;SDS011;5086;50.830;7.102;2023-05-09T13:32:44;3.00;;;2.70;;
10094;SDS011;5086;50.830;7.102;2023-05-09T13:35:11;5.30;;;2.90;;
10094;SDS011;5086;50.830;7.102;2023-05-09T13:37:44;2.90;;;2.10;;
10094;SDS011;5086;50.830;7.102;2023-05-09T13:40:16;2.50;;;2.30;;
10094;SDS011;5086;50.830;7.102;2023-05-09T13:42:43;4.50;;;2.70;;
10094;SDS011;5086;50.830;7.102;2023-05-09T13:45:15;3.43;;;2.17;;
10094;SDS011;5086;50.830;7.102;2023-05-09T13:47:44;2.50;;;2.30;;
10094;SDS011;5086;50.830;7.102;2023-05-09T13:50:12;4.53;;;2.70;;
10094;SDS011;5086;50.830;7.102;2023-05-09T13:52:45;3.10;;;2.37;;
10094;SDS011;5086;50.830;7.102;2023-05-09T13:55:15;3.80;;;2.63;;
10094;SDS011;5086;50.830;7.102;2023-05-09T13:57:45;4.47;;;2.37;;
10094;SDS011;5086;50.830;7.102;2023-05-09T14:00:13;2.40;;;2.20;;
10094;SDS011;5086;50.830;7.102;2023-05-09T14:02:46;4.33;;;2.60;;
10094;SDS011;5086;50.830;7.102;2023-05-09T14:05:18;3.43;;;1.97;;
10094;SDS011;5086;50.830;7.102;2023-05-09T14:07:47;4.73;;;2.13;;
10094;SDS011;5086;50.830;7.102;2023-05-09T14:10:19;5.27;;;2.43;;
10094;SDS011;5086;50.830;7.102;2023-05-09T14:12:46;3.17;;;2.00;;
10094;SDS011;5086;50.830;7.102;2023-05-09T14:15:13;3.87;;;1.87;;
10094;SDS011;5086;50.830;7.102;2023-05-09T14:17:40;2.53;;;2.20;;
10094;SDS011;5086;50.830;7.102;2023-05-09T14:20:08;2.53;;;1.90;;
10094;SDS011;5086;50.830;7.102;2023-05-09T14:22:35;3.33;;;1.90;;
10094;SDS011;5086;50.830;7.102;2023-05-09T14:25:08;2.20;;;2.00;;
10094;SDS011;5086;50.830;7.102;2023-05-09T14:27:38;2.50;;;2.03;;
10094;SDS011;5086;50.830;7.102;2023-05-09T14:30:06;3.50;;;2.30;;
10094;SDS011;5086;50.830;7.102;2023-05-09T14:32:34;2.27;;;1.80;;
10094;SDS011;5086;50.830;7.102;2023-05-09T14:35:01;3.10;;;2.07;;
10094;SDS011;5086;50.830;7.102;2023-05-09T14:37:36;3.10;;;1.90;;
10094;SDS011;5086;50.830;7.102;2023-05-09T14:40:06;6.60;;;3.27;;
10094;SDS011;5086;50.830;7.102;2023-05-09T14:42:46;3.10;;;2.67;;
10094;SDS011;5086;50.830;7.102;2023-05-09T14:45:13;3.20;;;2.90;;
10094;SDS011;5086;50.830;7.102;2023-05-09T14:47:47;7.77;;;2.90;;
10094;SDS011;5086;50.830;7.102;2023-05-09T14:50:25;5.33;;;3.33;;
10094;SDS011;5086;50.830;7.102;2023-05-09T14:52:53;10.80;;;3.87;;
10094;SDS011;5086;50.830;7.102;2023-05-09T14:55:22;5.93;;;3.90;;
10094;SDS011;5086;50.830;7.102;2023-05-09T14:58:00;4.22;;;3.05;;
10094;SDS011;5086;50.830;7.102;2023-05-09T15:01:11;6.63;;;4.27;;
10094;SDS011;5086;50.830;7.102;2023-05-09T15:03:55;5.22;;;3.75;;